createdAt,value
2023-03-29T00:02:53.285Z,13.20
2023-03-29T00:08:02.726Z,13.25
2023-03-29T00:13:05.343Z,13.22
2023-03-29T00:18:07.579Z,13.15
2023-03-29T00:23:09.653Z,13.12
2023-03-29T00:28:14.184Z,13.08
2023-03-29T00:33:16.226Z,13.04
2023-03-29T00:38:18.382Z,13.04
2023-03-29T00:43:21.117Z,12.95
2023-03-29T00:48:28.239Z,12.83
2023-03-29T00:53:34.440Z,12.78
2023-03-29T00:58:55.474Z,12.45
2023-03-29T01:04:05.305Z,12.26
2023-03-29T01:09:10.564Z,12.18
2023-03-29T01:14:23.123Z,12.04
2023-03-29T01:19:30.522Z,12.07
2023-03-29T01:24:41.060Z,11.99
2023-03-29T01:29:51.791Z,11.88
2023-03-29T01:35:04.230Z,11.87
2023-03-29T01:40:06.804Z,11.73
2023-03-29T01:45:27.908Z,11.84
2023-03-29T01:50:41.470Z,11.75
2023-03-29T01:55:47.742Z,11.72
2023-03-29T02:00:54.357Z,11.72
2023-03-29T02:05:57.829Z,11.64
2023-03-29T02:11:03.346Z,11.49
2023-03-29T02:16:13.378Z,11.45
2023-03-29T02:21:28.591Z,11.45
2023-03-29T02:26:31.098Z,11.32
2023-03-29T02:31:41.465Z,11.33
2023-03-29T02:36:48.122Z,11.27
2023-03-29T02:41:51.552Z,11.09
2023-03-29T02:46:57.562Z,11.16
2023-03-29T02:52:06.918Z,11.04
2023-03-29T02:57:10.527Z,11.07
2023-03-29T03:02:14.001Z,10.94
2023-03-29T03:07:18.454Z,11.00
2023-03-29T03:12:20.935Z,10.98
2023-03-29T03:17:25.870Z,10.97
2023-03-29T03:22:28.170Z,10.93
2023-03-29T03:27:30.521Z,10.80
2023-03-29T03:32:35.386Z,10.83
2023-03-29T03:38:20.344Z,10.74
2023-03-29T03:43:34.164Z,10.71
2023-03-29T03:48:37.377Z,10.63
2023-03-29T03:53:56.593Z,10.61
2023-03-29T03:59:11.800Z,10.61
2023-03-29T04:04:36.715Z,10.59
2023-03-29T04:09:49.024Z,10.53
2023-03-29T04:15:07.922Z,10.50
2023-03-29T04:20:12.958Z,10.38
2023-03-29T04:25:16.799Z,10.43
2023-03-29T04:30:26.141Z,10.41
2023-03-29T04:35:38.023Z,10.36
2023-03-29T04:40:44.244Z,10.32
2023-03-29T04:45:56.241Z,10.35
2023-03-29T04:51:25.105Z,10.34
2023-03-29T04:56:29.410Z,10.34
2023-03-29T05:02:05.221Z,10.32
2023-03-29T05:07:08.028Z,10.29
2023-03-29T05:12:10.408Z,10.23
2023-03-29T05:17:28.529Z,10.21
2023-03-29T05:22:37.248Z,10.15
2023-03-29T05:27:42.827Z,10.11
2023-03-29T05:32:47.148Z,10.10
2023-03-29T05:37:54.016Z,10.05
2023-03-29T05:42:58.395Z,10.02
2023-03-29T05:48:01.621Z,10.01
2023-03-29T05:53:04.427Z,9.97
2023-03-29T05:58:13.069Z,9.88
2023-03-29T06:03:21.194Z,9.80
2023-03-29T06:08:26.595Z,9.77
2023-03-29T06:13:47.150Z,9.75
2023-03-29T06:18:49.530Z,9.72
2023-03-29T06:23:52.036Z,9.76
2023-03-29T06:28:54.696Z,9.79
2023-03-29T06:33:58.487Z,9.74
2023-03-29T06:39:11.817Z,9.88
2023-03-29T06:44:40.066Z,9.94
2023-03-29T06:49:53.063Z,10.00
2023-03-29T06:55:13.183Z,10.10
2023-03-29T07:00:19.215Z,10.20
2023-03-29T07:05:52.295Z,10.18
2023-03-29T07:10:56.759Z,10.41
2023-03-29T07:16:18.513Z,10.48
2023-03-29T07:21:37.896Z,10.57
2023-03-29T07:26:52.141Z,10.61
2023-03-29T07:32:03.038Z,10.75
2023-03-29T07:37:11.545Z,10.80
2023-03-29T07:42:16.509Z,10.88
2023-03-29T07:47:19.040Z,10.97
2023-03-29T07:52:22.084Z,11.13
2023-03-29T07:57:26.861Z,11.33
2023-03-29T08:02:31.507Z,11.83
2023-03-29T08:07:37.494Z,11.96
2023-03-29T08:12:58.427Z,12.10
2023-03-29T08:18:26.769Z,12.23
2023-03-29T08:23:29.209Z,12.23
2023-03-29T08:28:46.430Z,12.55
2023-03-29T08:33:50.326Z,12.84
2023-03-29T08:39:11.391Z,13.20
2023-03-29T08:44:43.277Z,13.60
2023-03-29T08:49:53.852Z,14.12
2023-03-29T08:55:03.588Z,14.57
2023-03-29T09:00:42.211Z,15.15
2023-03-29T09:05:50.222Z,16.13
2023-03-29T09:11:24.385Z,17.75
2023-03-29T09:16:41.299Z,18.53
2023-03-29T09:21:47.481Z,19.51
2023-03-29T09:27:05.458Z,20.47
2023-03-29T09:32:22.782Z,21.18
2023-03-29T09:37:38.366Z,21.86
2023-03-29T09:42:41.960Z,21.87
2023-03-29T09:48:03.559Z,22.44
2023-03-29T09:53:11.963Z,23.15
2023-03-29T09:58:22.760Z,22.96
2023-03-29T10:03:29.911Z,23.29
2023-03-29T10:08:48.217Z,23.02
2023-03-29T10:13:55.134Z,23.19
2023-03-29T10:18:57.385Z,23.38
2023-03-29T10:23:59.751Z,23.39
2023-03-29T10:29:04.188Z,23.76
2023-03-29T10:34:06.788Z,24.37
2023-03-29T10:39:11.042Z,24.53
2023-03-29T10:44:33.296Z,24.80
2023-03-29T10:49:45.315Z,24.21
2023-03-29T10:54:48.678Z,24.66
2023-03-29T11:00:08.835Z,24.50
2023-03-29T11:05:27.765Z,24.82
2023-03-29T11:10:48.969Z,25.26
2023-03-29T11:16:00.247Z,25.01
2023-03-29T11:21:21.263Z,25.38
2023-03-29T11:26:25.166Z,25.01
2023-03-29T11:31:56.170Z,25.21
2023-03-29T11:37:08.022Z,25.12
2023-03-29T11:42:18.919Z,24.74
2023-03-29T11:47:23.265Z,24.44
2023-03-29T11:52:33.931Z,24.16
2023-03-29T11:57:42.469Z,24.05
2023-03-29T12:02:58.793Z,23.85
2023-03-29T12:08:16.663Z,23.57
2023-03-29T12:13:36.011Z,23.38
2023-03-29T12:18:45.495Z,23.30
2023-03-29T12:23:48.483Z,23.37
2023-03-29T12:29:11.655Z,23.13
2023-03-29T12:34:16.509Z,23.20
2023-03-29T12:39:45.375Z,23.34
2023-03-29T12:45:15.394Z,23.47
2023-03-29T12:50:33.428Z,23.33
2023-03-29T12:55:50.665Z,23.36
2023-03-29T13:01:10.015Z,23.39
2023-03-29T13:06:13.677Z,23.37
2023-03-29T13:11:34.122Z,23.42
2023-03-29T13:16:36.487Z,23.42
2023-03-29T13:21:49.471Z,23.65
2023-03-29T13:27:15.590Z,23.58
2023-03-29T13:32:36.766Z,23.65
2023-03-29T13:37:42.409Z,23.63
2023-03-29T13:42:46.724Z,23.60
2023-03-29T13:48:04.328Z,23.67
2023-03-29T13:53:26.753Z,24.10
2023-03-29T13:58:41.932Z,23.97
2023-03-29T14:03:46.231Z,24.05
2023-03-29T14:08:49.563Z,24.33
2023-03-29T14:13:56.126Z,24.18
2023-03-29T14:19:01.525Z,24.27
2023-03-29T14:24:10.691Z,24.19
2023-03-29T14:29:15.536Z,24.35
2023-03-29T14:34:20.099Z,24.57
2023-03-29T14:39:24.470Z,24.57
2023-03-29T14:44:32.040Z,24.46
2023-03-29T14:49:35.023Z,24.60
2023-03-29T14:54:38.380Z,24.52
2023-03-29T14:59:43.124Z,24.57
2023-03-29T15:04:45.256Z,24.70
2023-03-29T15:09:47.448Z,24.27
2023-03-29T15:14:52.060Z,24.53
2023-03-29T15:19:58.500Z,24.52
2023-03-29T15:25:04.594Z,24.60
2023-03-29T15:30:16.901Z,24.43
2023-03-29T15:35:24.708Z,24.51
2023-03-29T15:40:37.284Z,24.53
2023-03-29T15:45:41.476Z,24.46
2023-03-29T15:50:44.808Z,24.47
2023-03-29T15:55:59.984Z,24.40
2023-03-29T16:01:14.926Z,24.50
2023-03-29T16:06:22.401Z,24.45
2023-03-29T16:11:24.739Z,24.24
2023-03-29T16:16:27.337Z,24.28
2023-03-29T16:21:29.630Z,24.07
2023-03-29T16:26:32.797Z,24.21
2023-03-29T16:31:40.486Z,24.18
2023-03-29T16:36:44.355Z,24.11
2023-03-29T16:41:49.162Z,23.84
2023-03-29T16:46:57.906Z,23.94
2023-03-29T16:52:00.159Z,23.90
2023-03-29T16:57:02.233Z,23.75
2023-03-29T17:02:04.260Z,23.76
2023-03-29T17:07:06.898Z,23.78
2023-03-29T17:12:09.159Z,23.58
2023-03-29T17:17:11.380Z,23.63
2023-03-29T17:22:13.387Z,23.38
2023-03-29T17:27:16.434Z,23.19
2023-03-29T17:32:18.559Z,23.19
2023-03-29T17:37:24.114Z,23.13
2023-03-29T17:42:26.525Z,23.05
2023-03-29T17:47:28.689Z,22.87
2023-03-29T17:52:31.075Z,22.88
2023-03-29T17:57:33.701Z,22.78
2023-03-29T18:02:47.401Z,22.67
2023-03-29T18:07:49.572Z,22.45
2023-03-29T18:12:52.059Z,22.30
2023-03-29T18:17:58.945Z,22.14
2023-03-29T18:23:10.277Z,21.93
2023-03-29T18:28:14.688Z,21.77
2023-03-29T18:33:26.260Z,21.60
2023-03-29T18:38:30.143Z,21.43
2023-03-29T18:43:43.779Z,21.27
2023-03-29T18:48:50.193Z,21.16
2023-03-29T18:54:11.768Z,20.97
2023-03-29T18:59:20.055Z,20.91
2023-03-29T19:04:26.819Z,20.80
2023-03-29T19:09:30.242Z,20.69
2023-03-29T19:14:41.521Z,20.55
2023-03-29T19:25:18.538Z,20.33
2023-03-29T19:37:34.677Z,19.98
2023-03-29T19:42:41.746Z,19.83
2023-03-29T19:47:47.757Z,19.85
2023-03-29T19:52:50.521Z,19.77
2023-03-29T19:57:52.800Z,19.78
2023-03-29T20:02:56.933Z,19.62
2023-03-29T20:07:59.022Z,19.66
2023-03-29T20:13:02.165Z,19.66
2023-03-29T20:18:05.459Z,19.58
2023-03-29T20:23:16.954Z,19.50
2023-03-29T20:28:19.909Z,19.34
2023-03-29T20:33:22.550Z,19.35
2023-03-29T20:38:24.890Z,19.19
2023-03-29T20:43:27.456Z,19.19
2023-03-29T20:48:38.464Z,19.08
2023-03-29T20:53:44.104Z,18.96
2023-03-29T20:58:47.848Z,18.87
2023-03-29T21:03:49.985Z,18.73
2023-03-29T21:08:52.747Z,18.66
2023-03-29T21:13:55.406Z,18.55
2023-03-29T21:18:57.534Z,18.30
2023-03-29T21:23:59.828Z,18.27
2023-03-29T21:29:19.409Z,18.30
2023-03-29T21:34:45.326Z,18.19
2023-03-29T21:39:47.409Z,18.14
2023-03-29T21:44:49.475Z,17.95
2023-03-29T21:49:51.943Z,17.93
2023-03-29T21:54:54.083Z,17.69
2023-03-29T21:59:56.880Z,17.74
2023-03-29T22:04:59.131Z,17.73
2023-03-29T22:10:05.178Z,17.57
2023-03-29T22:15:11.795Z,17.44
2023-03-29T22:20:15.096Z,17.41
2023-03-29T22:25:25.558Z,17.26
2023-03-29T22:30:28.807Z,17.11
2023-03-29T22:35:33.615Z,17.05
2023-03-29T22:40:40.740Z,16.95
2023-03-29T22:45:44.717Z,16.92
2023-03-29T22:50:47.555Z,16.91
2023-03-29T22:55:49.753Z,16.71
2023-03-29T23:00:52.701Z,16.63
2023-03-29T23:05:57.124Z,16.66
2023-03-29T23:11:00.530Z,16.48
2023-03-29T23:16:06.048Z,16.46
2023-03-29T23:21:12.820Z,16.43
2023-03-29T23:26:19.702Z,16.28
2023-03-29T23:31:25.091Z,16.19
2023-03-29T23:36:32.855Z,16.06
2023-03-29T23:41:37.695Z,16.05
2023-03-29T23:46:43.299Z,16.01
2023-03-29T23:51:49.371Z,15.93
2023-03-29T23:56:54.311Z,15.94
